Loveland, Colorado
Current Conditions -  °F | °C
As of 7:15 PM on Friday 19 Dec 2014 (Local Time) from KFNL Reporting Station
Clear Clear  
Wind Chill: 23°   Ceiling: Unl
Heat Index: 30°   Visibility: 10mi
Dew Point: 14°   Wind: 7mph
Humidity: 51%   Direction: 10°N
Pressure: 30.03"   Gusts: NA
Location:  40.39°N, 105.07°W
Report Text: KFNL 200215Z AUTO 01006KT 10SM CLR M01/M10 A3003 RMK AO1
Loading
Personal Weather Stations






























Interactive Weather Map New forecast layout! Learn more

10-Day Weather Forecast

Advertisements
Track Severe Weather on mobile